sensor_id;sensor_type;location;lat;lon;timestamp;P1;durP1;ratioP1;P2;durP2;ratioP2
46028;SDS011;31763;48.180;7.904;2022-07-18T00:00:23;5.65;;;2.20;;
46028;SDS011;31763;48.180;7.904;2022-07-18T00:02:50;3.88;;;2.05;;
46028;SDS011;31763;48.180;7.904;2022-07-18T00:05:17;3.00;;;2.00;;
46028;SDS011;31763;48.180;7.904;2022-07-18T00:07:45;6.40;;;3.40;;
46028;SDS011;31763;48.180;7.904;2022-07-18T00:10:12;3.70;;;1.80;;
46028;SDS011;31763;48.180;7.904;2022-07-18T00:12:39;1.75;;;1.65;;
46028;SDS011;31763;48.180;7.904;2022-07-18T00:15:07;4.18;;;1.73;;
46028;SDS011;31763;48.180;7.904;2022-07-18T00:17:36;3.33;;;1.98;;
46028;SDS011;31763;48.180;7.904;2022-07-18T00:20:05;3.15;;;1.45;;
46028;SDS011;31763;48.180;7.904;2022-07-18T00:22:34;3.30;;;1.90;;
46028;SDS011;31763;48.180;7.904;2022-07-18T00:25:01;3.10;;;1.75;;
46028;SDS011;31763;48.180;7.904;2022-07-18T00:27:29;4.38;;;1.70;;
46028;SDS011;31763;48.180;7.904;2022-07-18T00:29:56;3.15;;;1.70;;
46028;SDS011;31763;48.180;7.904;2022-07-18T00:32:23;3.03;;;1.90;;
46028;SDS011;31763;48.180;7.904;2022-07-18T00:34:50;2.50;;;1.40;;
46028;SDS011;31763;48.180;7.904;2022-07-18T00:37:17;1.63;;;1.50;;
46028;SDS011;31763;48.180;7.904;2022-07-18T00:39:45;3.28;;;1.40;;
46028;SDS011;31763;48.180;7.904;2022-07-18T00:42:12;2.90;;;1.50;;
46028;SDS011;31763;48.180;7.904;2022-07-18T00:44:39;2.05;;;1.48;;
46028;SDS011;31763;48.180;7.904;2022-07-18T00:47:07;2.28;;;1.52;;
46028;SDS011;31763;48.180;7.904;2022-07-18T00:49:34;2.53;;;1.50;;
46028;SDS011;31763;48.180;7.904;2022-07-18T00:52:01;2.50;;;1.55;;
46028;SDS011;31763;48.180;7.904;2022-07-18T00:54:29;1.50;;;1.33;;
46028;SDS011;31763;48.180;7.904;2022-07-18T00:56:58;2.97;;;1.58;;
46028;SDS011;31763;48.180;7.904;2022-07-18T00:59:26;2.22;;;1.60;;
46028;SDS011;31763;48.180;7.904;2022-07-18T01:02:18;1.67;;;1.50;;
46028;SDS011;31763;48.180;7.904;2022-07-18T01:05:33;3.28;;;1.52;;
46028;SDS011;31763;48.180;7.904;2022-07-18T01:08:36;3.22;;;1.50;;
46028;SDS011;31763;48.180;7.904;2022-07-18T01:11:14;2.67;;;1.73;;
46028;SDS011;31763;48.180;7.904;2022-07-18T01:13:41;3.17;;;1.50;;
46028;SDS011;31763;48.180;7.904;2022-07-18T01:16:15;2.75;;;1.70;;
46028;SDS011;31763;48.180;7.904;2022-07-18T01:19:51;1.88;;;1.38;;
46028;SDS011;31763;48.180;7.904;2022-07-18T01:22:32;1.65;;;1.55;;
46028;SDS011;31763;48.180;7.904;2022-07-18T01:25:24;2.00;;;1.57;;
46028;SDS011;31763;48.180;7.904;2022-07-18T01:28:31;1.60;;;1.27;;
46028;SDS011;31763;48.180;7.904;2022-07-18T01:31:29;1.60;;;1.50;;
46028;SDS011;31763;48.180;7.904;2022-07-18T01:34:22;4.55;;;1.88;;
46028;SDS011;31763;48.180;7.904;2022-07-18T01:36:51;2.78;;;1.55;;
46028;SDS011;31763;48.180;7.904;2022-07-18T01:39:35;2.85;;;1.88;;
46028;SDS011;31763;48.180;7.904;2022-07-18T01:42:14;4.72;;;1.75;;
46028;SDS011;31763;48.180;7.904;2022-07-18T01:44:56;2.72;;;1.63;;
46028;SDS011;31763;48.180;7.904;2022-07-18T01:48:06;3.83;;;1.55;;
46028;SDS011;31763;48.180;7.904;2022-07-18T01:50:33;2.80;;;2.00;;
46028;SDS011;31763;48.180;7.904;2022-07-18T01:53:01;1.50;;;1.40;;
46028;SDS011;31763;48.180;7.904;2022-07-18T01:55:28;3.33;;;1.60;;
46028;SDS011;31763;48.180;7.904;2022-07-18T01:57:56;5.32;;;1.50;;
46028;SDS011;31763;48.180;7.904;2022-07-18T02:00:23;3.05;;;1.52;;
46028;SDS011;31763;48.180;7.904;2022-07-18T02:02:50;3.05;;;1.80;;
46028;SDS011;31763;48.180;7.904;2022-07-18T02:05:18;2.10;;;1.85;;
46028;SDS011;31763;48.180;7.904;2022-07-18T02:07:45;3.00;;;1.67;;
46028;SDS011;31763;48.180;7.904;2022-07-18T02:10:14;4.00;;;1.75;;
46028;SDS011;31763;48.180;7.904;2022-07-18T02:12:43;1.70;;;1.50;;
46028;SDS011;31763;48.180;7.904;2022-07-18T02:15:11;1.77;;;1.50;;
46028;SDS011;31763;48.180;7.904;2022-07-18T02:17:39;2.03;;;1.50;;
46028;SDS011;31763;48.180;7.904;2022-07-18T02:20:08;2.22;;;1.80;;
46028;SDS011;31763;48.180;7.904;2022-07-18T02:22:37;1.73;;;1.60;;
46028;SDS011;31763;48.180;7.904;2022-07-18T02:25:04;2.75;;;1.30;;
46028;SDS011;31763;48.180;7.904;2022-07-18T02:27:33;2.72;;;1.60;;
46028;SDS011;31763;48.180;7.904;2022-07-18T02:30:00;2.08;;;1.55;;
46028;SDS011;31763;48.180;7.904;2022-07-18T02:32:27;2.42;;;1.70;;
46028;SDS011;31763;48.180;7.904;2022-07-18T02:34:54;2.80;;;1.63;;
46028;SDS011;31763;48.180;7.904;2022-07-18T02:37:22;2.65;;;1.60;;
46028;SDS011;31763;48.180;7.904;2022-07-18T02:39:49;2.85;;;1.38;;
46028;SDS011;31763;48.180;7.904;2022-07-18T02:42:16;2.78;;;2.00;;
46028;SDS011;31763;48.180;7.904;2022-07-18T02:44:43;2.17;;;1.77;;
46028;SDS011;31763;48.180;7.904;2022-07-18T02:47:12;2.95;;;1.70;;
46028;SDS011;31763;48.180;7.904;2022-07-18T02:49:39;3.10;;;1.40;;
46028;SDS011;31763;48.180;7.904;2022-07-18T02:52:07;2.20;;;1.73;;
46028;SDS011;31763;48.180;7.904;2022-07-18T02:54:35;4.43;;;1.77;;
46028;SDS011;31763;48.180;7.904;2022-07-18T02:57:04;2.92;;;1.80;;
46028;SDS011;31763;48.180;7.904;2022-07-18T02:59:31;3.22;;;1.65;;
46028;SDS011;31763;48.180;7.904;2022-07-18T03:01:59;1.80;;;1.58;;
46028;SDS011;31763;48.180;7.904;2022-07-18T03:04:26;3.35;;;2.00;;
46028;SDS011;31763;48.180;7.904;2022-07-18T03:06:54;2.63;;;1.80;;
46028;SDS011;31763;48.180;7.904;2022-07-18T03:09:21;4.53;;;1.80;;
46028;SDS011;31763;48.180;7.904;2022-07-18T03:11:49;5.15;;;2.17;;
46028;SDS011;31763;48.180;7.904;2022-07-18T03:14:16;1.58;;;1.40;;
46028;SDS011;31763;48.180;7.904;2022-07-18T03:16:43;3.90;;;1.80;;
46028;SDS011;31763;48.180;7.904;2022-07-18T03:19:10;2.45;;;1.77;;
46028;SDS011;31763;48.180;7.904;2022-07-18T03:21:38;5.40;;;1.88;;
46028;SDS011;31763;48.180;7.904;2022-07-18T03:24:05;2.28;;;1.83;;
46028;SDS011;31763;48.180;7.904;2022-07-18T03:26:32;3.35;;;1.60;;
46028;SDS011;31763;48.180;7.904;2022-07-18T03:29:00;1.88;;;1.60;;
46028;SDS011;31763;48.180;7.904;2022-07-18T03:31:27;8.02;;;2.00;;
46028;SDS011;31763;48.180;7.904;2022-07-18T03:33:54;3.72;;;1.63;;
46028;SDS011;31763;48.180;7.904;2022-07-18T03:36:21;3.20;;;1.75;;
46028;SDS011;31763;48.180;7.904;2022-07-18T03:38:49;2.67;;;1.70;;
46028;SDS011;31763;48.180;7.904;2022-07-18T03:41:16;1.77;;;1.25;;
46028;SDS011;31763;48.180;7.904;2022-07-18T03:43:43;3.95;;;1.90;;
46028;SDS011;31763;48.180;7.904;2022-07-18T03:46:11;3.08;;;1.50;;
46028;SDS011;31763;48.180;7.904;2022-07-18T03:48:38;2.28;;;1.50;;
46028;SDS011;31763;48.180;7.904;2022-07-18T03:51:05;1.60;;;1.50;;
46028;SDS011;31763;48.180;7.904;2022-07-18T03:53:32;2.00;;;1.67;;
46028;SDS011;31763;48.180;7.904;2022-07-18T03:56:00;2.20;;;1.35;;
46028;SDS011;31763;48.180;7.904;2022-07-18T03:58:27;2.70;;;1.60;;
46028;SDS011;31763;48.180;7.904;2022-07-18T04:00:54;7.13;;;1.67;;
46028;SDS011;31763;48.180;7.904;2022-07-18T04:03:22;5.00;;;1.58;;
46028;SDS011;31763;48.180;7.904;2022-07-18T04:05:49;5.18;;;2.00;;
46028;SDS011;31763;48.180;7.904;2022-07-18T04:08:17;5.45;;;2.28;;
46028;SDS011;31763;48.180;7.904;2022-07-18T04:10:44;3.90;;;1.70;;
46028;SDS011;31763;48.180;7.904;2022-07-18T04:13:11;4.20;;;1.70;;
46028;SDS011;31763;48.180;7.904;2022-07-18T04:15:39;2.65;;;1.60;;
46028;SDS011;31763;48.180;7.904;2022-07-18T04:18:06;2.55;;;1.75;;
46028;SDS011;31763;48.180;7.904;2022-07-18T04:20:34;3.17;;;1.70;;
46028;SDS011;31763;48.180;7.904;2022-07-18T04:23:03;6.30;;;2.58;;
46028;SDS011;31763;48.180;7.904;2022-07-18T04:25:35;3.25;;;2.45;;
46028;SDS011;31763;48.180;7.904;2022-07-18T04:28:09;2.20;;;1.88;;
46028;SDS011;31763;48.180;7.904;2022-07-18T04:30:38;2.63;;;2.00;;
46028;SDS011;31763;48.180;7.904;2022-07-18T04:33:06;2.10;;;1.90;;
46028;SDS011;31763;48.180;7.904;2022-07-18T04:35:34;2.80;;;2.00;;
46028;SDS011;31763;48.180;7.904;2022-07-18T04:38:02;4.22;;;1.65;;
46028;SDS011;31763;48.180;7.904;2022-07-18T04:40:30;2.20;;;1.90;;
46028;SDS011;31763;48.180;7.904;2022-07-18T04:42:57;5.45;;;2.08;;
46028;SDS011;31763;48.180;7.904;2022-07-18T04:45:25;10.05;;;2.25;;
46028;SDS011;31763;48.180;7.904;2022-07-18T04:47:52;4.22;;;1.85;;
46028;SDS011;31763;48.180;7.904;2022-07-18T04:50:21;4.35;;;2.05;;
46028;SDS011;31763;48.180;7.904;2022-07-18T04:52:49;4.00;;;1.75;;
46028;SDS011;31763;48.180;7.904;2022-07-18T04:55:18;3.47;;;1.80;;
46028;SDS011;31763;48.180;7.904;2022-07-18T04:57:48;7.03;;;1.98;;
46028;SDS011;31763;48.180;7.904;2022-07-18T05:00:16;3.15;;;1.90;;
46028;SDS011;31763;48.180;7.904;2022-07-18T05:02:46;3.38;;;1.88;;
46028;SDS011;31763;48.180;7.904;2022-07-18T05:05:15;3.00;;;2.20;;
46028;SDS011;31763;48.180;7.904;2022-07-18T05:07:44;3.88;;;1.98;;
46028;SDS011;31763;48.180;7.904;2022-07-18T05:10:12;2.85;;;1.90;;
46028;SDS011;31763;48.180;7.904;2022-07-18T05:12:42;4.68;;;2.00;;
46028;SDS011;31763;48.180;7.904;2022-07-18T05:15:11;2.47;;;1.77;;
46028;SDS011;31763;48.180;7.904;2022-07-18T05:17:40;4.25;;;2.05;;
46028;SDS011;31763;48.180;7.904;2022-07-18T05:20:09;3.33;;;1.70;;
46028;SDS011;31763;48.180;7.904;2022-07-18T05:22:38;4.38;;;1.73;;
46028;SDS011;31763;48.180;7.904;2022-07-18T05:25:05;3.92;;;1.80;;
46028;SDS011;31763;48.180;7.904;2022-07-18T05:27:34;3.22;;;2.00;;
46028;SDS011;31763;48.180;7.904;2022-07-18T05:30:02;2.90;;;1.67;;
46028;SDS011;31763;48.180;7.904;2022-07-18T05:32:31;3.85;;;1.80;;
46028;SDS011;31763;48.180;7.904;2022-07-18T05:34:58;5.28;;;1.98;;
46028;SDS011;31763;48.180;7.904;2022-07-18T05:37:25;3.15;;;2.30;;
46028;SDS011;31763;48.180;7.904;2022-07-18T05:39:53;5.18;;;2.40;;
46028;SDS011;31763;48.180;7.904;2022-07-18T05:42:20;6.80;;;2.25;;
46028;SDS011;31763;48.180;7.904;2022-07-18T05:45:07;5.60;;;1.90;;
46028;SDS011;31763;48.180;7.904;2022-07-18T05:47:35;4.85;;;2.00;;
46028;SDS011;31763;48.180;7.904;2022-07-18T05:50:04;2.70;;;2.10;;
46028;SDS011;31763;48.180;7.904;2022-07-18T05:52:32;3.17;;;2.33;;
46028;SDS011;31763;48.180;7.904;2022-07-18T05:55:00;2.60;;;1.50;;
46028;SDS011;31763;48.180;7.904;2022-07-18T05:57:27;4.32;;;2.20;;
46028;SDS011;31763;48.180;7.904;2022-07-18T05:59:54;3.70;;;2.10;;
46028;SDS011;31763;48.180;7.904;2022-07-18T06:02:21;4.82;;;2.00;;
46028;SDS011;31763;48.180;7.904;2022-07-18T06:04:49;2.75;;;2.10;;
46028;SDS011;31763;48.180;7.904;2022-07-18T06:07:36;3.47;;;2.10;;
46028;SDS011;31763;48.180;7.904;2022-07-18T06:10:03;4.07;;;2.25;;
46028;SDS011;31763;48.180;7.904;2022-07-18T06:12:32;5.40;;;2.15;;
46028;SDS011;31763;48.180;7.904;2022-07-18T06:14:59;3.95;;;1.95;;
46028;SDS011;31763;48.180;7.904;2022-07-18T06:17:27;10.88;;;2.20;;
46028;SDS011;31763;48.180;7.904;2022-07-18T06:19:55;3.88;;;2.00;;
46028;SDS011;31763;48.180;7.904;2022-07-18T06:22:22;3.03;;;1.92;;
46028;SDS011;31763;48.180;7.904;2022-07-18T06:24:50;9.57;;;2.35;;
46028;SDS011;31763;48.180;7.904;2022-07-18T06:27:17;4.47;;;2.35;;
46028;SDS011;31763;48.180;7.904;2022-07-18T06:29:45;4.50;;;2.03;;
46028;SDS011;31763;48.180;7.904;2022-07-18T06:32:12;4.80;;;1.92;;
46028;SDS011;31763;48.180;7.904;2022-07-18T06:34:39;15.23;;;2.72;;
46028;SDS011;31763;48.180;7.904;2022-07-18T06:37:06;3.90;;;2.42;;
46028;SDS011;31763;48.180;7.904;2022-07-18T06:39:34;5.15;;;1.80;;
46028;SDS011;31763;48.180;7.904;2022-07-18T06:42:07;2.72;;;2.00;;
46028;SDS011;31763;48.180;7.904;2022-07-18T06:44:34;4.05;;;2.30;;
46028;SDS011;31763;48.180;7.904;2022-07-18T06:47:05;2.63;;;2.00;;
46028;SDS011;31763;48.180;7.904;2022-07-18T06:52:03;2.10;;;1.90;;
46028;SDS011;31763;48.180;7.904;2022-07-18T06:54:34;2.53;;;2.03;;
46028;SDS011;31763;48.180;7.904;2022-07-18T06:57:15;2.38;;;1.85;;
46028;SDS011;31763;48.180;7.904;2022-07-18T07:00:13;3.75;;;1.85;;
46028;SDS011;31763;48.180;7.904;2022-07-18T07:02:48;4.53;;;2.20;;
46028;SDS011;31763;48.180;7.904;2022-07-18T07:05:20;4.70;;;1.65;;
46028;SDS011;31763;48.180;7.904;2022-07-18T07:08:07;2.13;;;1.73;;
46028;SDS011;31763;48.180;7.904;2022-07-18T07:10:41;1.92;;;1.80;;
46028;SDS011;31763;48.180;7.904;2022-07-18T07:13:17;2.38;;;1.95;;
46028;SDS011;31763;48.180;7.904;2022-07-18T07:19:16;3.30;;;2.50;;
46028;SDS011;31763;48.180;7.904;2022-07-18T07:21:43;2.92;;;2.22;;
46028;SDS011;31763;48.180;7.904;2022-07-18T07:24:10;5.28;;;2.03;;
46028;SDS011;31763;48.180;7.904;2022-07-18T07:26:38;2.20;;;2.00;;
46028;SDS011;31763;48.180;7.904;2022-07-18T07:29:05;3.80;;;2.13;;
46028;SDS011;31763;48.180;7.904;2022-07-18T07:31:32;2.92;;;2.17;;
46028;SDS011;31763;48.180;7.904;2022-07-18T07:34:00;2.97;;;1.90;;
46028;SDS011;31763;48.180;7.904;2022-07-18T07:36:31;2.20;;;2.00;;
46028;SDS011;31763;48.180;7.904;2022-07-18T07:38:59;5.32;;;2.10;;
46028;SDS011;31763;48.180;7.904;2022-07-18T07:41:26;3.97;;;2.00;;
46028;SDS011;31763;48.180;7.904;2022-07-18T07:43:54;3.55;;;1.95;;
46028;SDS011;31763;48.180;7.904;2022-07-18T07:46:21;4.63;;;2.30;;
46028;SDS011;31763;48.180;7.904;2022-07-18T07:48:48;2.33;;;1.90;;
46028;SDS011;31763;48.180;7.904;2022-07-18T07:51:15;2.80;;;1.80;;
46028;SDS011;31763;48.180;7.904;2022-07-18T07:53:50;3.28;;;1.63;;
46028;SDS011;31763;48.180;7.904;2022-07-18T07:56:17;4.93;;;1.83;;
46028;SDS011;31763;48.180;7.904;2022-07-18T07:58:46;2.53;;;1.90;;
46028;SDS011;31763;48.180;7.904;2022-07-18T08:01:13;2.47;;;1.88;;
46028;SDS011;31763;48.180;7.904;2022-07-18T08:03:43;2.67;;;1.85;;
46028;SDS011;31763;48.180;7.904;2022-07-18T08:06:12;2.13;;;1.92;;
46028;SDS011;31763;48.180;7.904;2022-07-18T08:08:39;4.80;;;2.05;;
46028;SDS011;31763;48.180;7.904;2022-07-18T08:11:07;5.63;;;2.17;;
46028;SDS011;31763;48.180;7.904;2022-07-18T08:13:34;8.15;;;2.95;;
46028;SDS011;31763;48.180;7.904;2022-07-18T08:16:01;3.08;;;2.00;;
46028;SDS011;31763;48.180;7.904;2022-07-18T08:18:29;5.20;;;2.13;;
46028;SDS011;31763;48.180;7.904;2022-07-18T08:20:56;6.00;;;2.33;;
46028;SDS011;31763;48.180;7.904;2022-07-18T08:23:23;3.08;;;2.05;;
46028;SDS011;31763;48.180;7.904;2022-07-18T08:25:50;3.28;;;1.80;;
46028;SDS011;31763;48.180;7.904;2022-07-18T08:28:18;3.28;;;2.00;;
46028;SDS011;31763;48.180;7.904;2022-07-18T08:30:45;2.83;;;1.58;;
46028;SDS011;31763;48.180;7.904;2022-07-18T08:33:12;4.53;;;1.88;;
46028;SDS011;31763;48.180;7.904;2022-07-18T08:35:39;2.22;;;1.80;;
46028;SDS011;31763;48.180;7.904;2022-07-18T08:38:06;6.20;;;1.73;;
46028;SDS011;31763;48.180;7.904;2022-07-18T08:40:34;3.08;;;1.80;;
46028;SDS011;31763;48.180;7.904;2022-07-18T08:43:03;4.80;;;2.00;;
46028;SDS011;31763;48.180;7.904;2022-07-18T08:45:49;3.13;;;1.80;;
46028;SDS011;31763;48.180;7.904;2022-07-18T08:48:22;3.47;;;1.88;;
46028;SDS011;31763;48.180;7.904;2022-07-18T08:50:50;6.65;;;2.20;;
46028;SDS011;31763;48.180;7.904;2022-07-18T08:53:18;5.57;;;2.22;;
46028;SDS011;31763;48.180;7.904;2022-07-18T08:55:46;5.03;;;2.20;;
46028;SDS011;31763;48.180;7.904;2022-07-18T08:58:14;3.38;;;2.22;;
46028;SDS011;31763;48.180;7.904;2022-07-18T09:01:03;2.45;;;2.00;;
46028;SDS011;31763;48.180;7.904;2022-07-18T09:03:31;2.53;;;1.90;;
46028;SDS011;31763;48.180;7.904;2022-07-18T09:06:02;7.07;;;2.00;;
46028;SDS011;31763;48.180;7.904;2022-07-18T09:08:33;9.85;;;2.05;;
46028;SDS011;31763;48.180;7.904;2022-07-18T09:11:02;2.75;;;1.90;;
46028;SDS011;31763;48.180;7.904;2022-07-18T09:16:01;2.40;;;1.83;;
46028;SDS011;31763;48.180;7.904;2022-07-18T09:18:36;2.58;;;2.00;;
46028;SDS011;31763;48.180;7.904;2022-07-18T09:21:23;6.93;;;2.40;;
46028;SDS011;31763;48.180;7.904;2022-07-18T09:24:00;3.85;;;2.05;;
46028;SDS011;31763;48.180;7.904;2022-07-18T09:26:42;5.80;;;2.20;;
46028;SDS011;31763;48.180;7.904;2022-07-18T09:29:29;3.55;;;2.03;;
46028;SDS011;31763;48.180;7.904;2022-07-18T09:32:21;4.55;;;1.73;;
46028;SDS011;31763;48.180;7.904;2022-07-18T09:34:49;2.72;;;2.05;;
46028;SDS011;31763;48.180;7.904;2022-07-18T09:37:23;3.88;;;2.13;;
46028;SDS011;31763;48.180;7.904;2022-07-18T09:39:53;3.83;;;1.85;;
46028;SDS011;31763;48.180;7.904;2022-07-18T09:42:21;6.93;;;2.22;;
46028;SDS011;31763;48.180;7.904;2022-07-18T09:44:58;5.38;;;2.17;;
46028;SDS011;31763;48.180;7.904;2022-07-18T09:47:25;3.38;;;2.10;;
46028;SDS011;31763;48.180;7.904;2022-07-18T09:49:53;3.88;;;2.10;;
46028;SDS011;31763;48.180;7.904;2022-07-18T09:52:21;4.43;;;2.05;;
46028;SDS011;31763;48.180;7.904;2022-07-18T09:54:53;4.05;;;2.50;;
46028;SDS011;31763;48.180;7.904;2022-07-18T09:57:34;2.38;;;2.17;;
46028;SDS011;31763;48.180;7.904;2022-07-18T10:00:33;2.88;;;2.38;;
46028;SDS011;31763;48.180;7.904;2022-07-18T10:03:21;3.40;;;2.20;;
46028;SDS011;31763;48.180;7.904;2022-07-18T10:05:50;6.22;;;2.30;;
46028;SDS011;31763;48.180;7.904;2022-07-18T10:08:20;4.30;;;2.50;;
46028;SDS011;31763;48.180;7.904;2022-07-18T10:13:17;4.22;;;2.10;;
46028;SDS011;31763;48.180;7.904;2022-07-18T10:15:46;3.38;;;2.58;;
46028;SDS011;31763;48.180;7.904;2022-07-18T10:18:18;4.38;;;2.45;;
46028;SDS011;31763;48.180;7.904;2022-07-18T10:20:57;8.02;;;2.65;;
46028;SDS011;31763;48.180;7.904;2022-07-18T10:36:32;3.15;;;2.28;;
46028;SDS011;31763;48.180;7.904;2022-07-18T10:39:13;5.68;;;2.10;;
46028;SDS011;31763;48.180;7.904;2022-07-18T10:47:17;3.65;;;2.10;;
46028;SDS011;31763;48.180;7.904;2022-07-18T11:00:58;4.30;;;2.05;;
46028;SDS011;31763;48.180;7.904;2022-07-18T11:07:09;2.70;;;2.03;;
46028;SDS011;31763;48.180;7.904;2022-07-18T11:10:13;4.35;;;2.33;;
46028;SDS011;31763;48.180;7.904;2022-07-18T11:14:02;4.05;;;2.28;;
46028;SDS011;31763;48.180;7.904;2022-07-18T11:16:35;3.65;;;2.22;;
46028;SDS011;31763;48.180;7.904;2022-07-18T11:19:39;5.13;;;2.15;;
46028;SDS011;31763;48.180;7.904;2022-07-18T11:22:50;6.10;;;2.40;;
46028;SDS011;31763;48.180;7.904;2022-07-18T11:25:40;4.72;;;2.30;;
46028;SDS011;31763;48.180;7.904;2022-07-18T11:28:22;5.53;;;2.30;;
46028;SDS011;31763;48.180;7.904;2022-07-18T11:31:01;5.47;;;2.47;;
46028;SDS011;31763;48.180;7.904;2022-07-18T11:33:31;4.18;;;2.25;;
46028;SDS011;31763;48.180;7.904;2022-07-18T11:36:06;6.78;;;2.22;;
46028;SDS011;31763;48.180;7.904;2022-07-18T11:38:36;2.53;;;2.05;;
46028;SDS011;31763;48.180;7.904;2022-07-18T11:41:05;7.80;;;2.08;;
46028;SDS011;31763;48.180;7.904;2022-07-18T11:43:33;7.03;;;2.35;;
46028;SDS011;31763;48.180;7.904;2022-07-18T11:46:05;3.50;;;2.03;;
46028;SDS011;31763;48.180;7.904;2022-07-18T11:48:41;4.70;;;2.38;;
46028;SDS011;31763;48.180;7.904;2022-07-18T11:51:10;3.13;;;2.28;;
46028;SDS011;31763;48.180;7.904;2022-07-18T11:53:49;5.50;;;2.38;;
46028;SDS011;31763;48.180;7.904;2022-07-18T11:56:18;3.08;;;2.28;;
46028;SDS011;31763;48.180;7.904;2022-07-18T11:58:47;4.93;;;2.60;;
46028;SDS011;31763;48.180;7.904;2022-07-18T12:01:16;2.78;;;2.03;;
46028;SDS011;31763;48.180;7.904;2022-07-18T12:03:44;4.53;;;2.20;;
46028;SDS011;31763;48.180;7.904;2022-07-18T12:06:14;5.13;;;2.13;;
46028;SDS011;31763;48.180;7.904;2022-07-18T12:08:51;3.30;;;2.00;;
46028;SDS011;31763;48.180;7.904;2022-07-18T12:14:01;3.33;;;2.10;;
46028;SDS011;31763;48.180;7.904;2022-07-18T12:24:17;2.38;;;2.17;;
46028;SDS011;31763;48.180;7.904;2022-07-18T12:35:06;5.28;;;2.50;;
46028;SDS011;31763;48.180;7.904;2022-07-18T12:37:35;5.57;;;2.30;;
46028;SDS011;31763;48.180;7.904;2022-07-18T12:40:11;3.13;;;2.30;;
46028;SDS011;31763;48.180;7.904;2022-07-18T12:43:01;3.75;;;2.80;;
46028;SDS011;31763;48.180;7.904;2022-07-18T12:45:33;6.07;;;2.20;;
46028;SDS011;31763;48.180;7.904;2022-07-18T12:48:01;4.82;;;2.08;;
46028;SDS011;31763;48.180;7.904;2022-07-18T12:50:29;5.40;;;2.45;;
46028;SDS011;31763;48.180;7.904;2022-07-18T12:52:56;4.93;;;2.10;;
46028;SDS011;31763;48.180;7.904;2022-07-18T12:55:24;3.60;;;2.40;;
46028;SDS011;31763;48.180;7.904;2022-07-18T12:57:57;4.57;;;2.05;;
46028;SDS011;31763;48.180;7.904;2022-07-18T13:00:25;5.95;;;2.20;;
46028;SDS011;31763;48.180;7.904;2022-07-18T13:02:53;5.68;;;2.45;;
46028;SDS011;31763;48.180;7.904;2022-07-18T13:05:22;4.38;;;2.20;;
46028;SDS011;31763;48.180;7.904;2022-07-18T13:07:50;4.57;;;2.60;;
46028;SDS011;31763;48.180;7.904;2022-07-18T13:10:17;3.42;;;2.50;;
46028;SDS011;31763;48.180;7.904;2022-07-18T13:12:44;4.55;;;2.38;;
46028;SDS011;31763;48.180;7.904;2022-07-18T13:15:12;2.65;;;2.28;;
46028;SDS011;31763;48.180;7.904;2022-07-18T13:17:39;5.03;;;2.53;;
46028;SDS011;31763;48.180;7.904;2022-07-18T13:20:06;4.40;;;2.67;;
46028;SDS011;31763;48.180;7.904;2022-07-18T13:22:34;6.10;;;3.50;;
46028;SDS011;31763;48.180;7.904;2022-07-18T13:25:08;3.53;;;3.22;;
46028;SDS011;31763;48.180;7.904;2022-07-18T13:27:36;9.50;;;3.78;;
46028;SDS011;31763;48.180;7.904;2022-07-18T13:30:04;5.13;;;3.88;;
46028;SDS011;31763;48.180;7.904;2022-07-18T13:32:33;7.88;;;4.10;;
46028;SDS011;31763;48.180;7.904;2022-07-18T13:35:00;7.53;;;4.82;;
46028;SDS011;31763;48.180;7.904;2022-07-18T13:37:28;5.68;;;4.80;;
46028;SDS011;31763;48.180;7.904;2022-07-18T13:39:56;9.13;;;5.57;;
46028;SDS011;31763;48.180;7.904;2022-07-18T13:42:23;11.80;;;6.20;;
46028;SDS011;31763;48.180;7.904;2022-07-18T13:44:50;9.60;;;6.10;;
46028;SDS011;31763;48.180;7.904;2022-07-18T13:47:17;9.18;;;6.78;;
46028;SDS011;31763;48.180;7.904;2022-07-18T13:49:45;13.23;;;7.40;;
46028;SDS011;31763;48.180;7.904;2022-07-18T13:52:13;10.25;;;6.93;;
46028;SDS011;31763;48.180;7.904;2022-07-18T13:54:40;13.43;;;7.35;;
46028;SDS011;31763;48.180;7.904;2022-07-18T13:57:08;11.88;;;7.85;;
46028;SDS011;31763;48.180;7.904;2022-07-18T13:59:35;13.65;;;7.97;;
46028;SDS011;31763;48.180;7.904;2022-07-18T14:02:03;13.73;;;7.45;;
46028;SDS011;31763;48.180;7.904;2022-07-18T14:04:30;14.00;;;7.15;;
46028;SDS011;31763;48.180;7.904;2022-07-18T14:07:17;10.02;;;6.43;;
46028;SDS011;31763;48.180;7.904;2022-07-18T14:09:45;12.55;;;6.57;;
46028;SDS011;31763;48.180;7.904;2022-07-18T14:12:19;13.30;;;7.10;;
46028;SDS011;31763;48.180;7.904;2022-07-18T14:14:46;9.50;;;6.43;;
46028;SDS011;31763;48.180;7.904;2022-07-18T14:17:14;10.32;;;6.40;;
46028;SDS011;31763;48.180;7.904;2022-07-18T14:19:41;11.82;;;6.40;;
46028;SDS011;31763;48.180;7.904;2022-07-18T14:22:08;12.73;;;6.72;;
46028;SDS011;31763;48.180;7.904;2022-07-18T14:24:36;13.88;;;7.82;;
46028;SDS011;31763;48.180;7.904;2022-07-18T14:27:04;11.20;;;6.20;;
46028;SDS011;31763;48.180;7.904;2022-07-18T14:29:33;11.57;;;6.53;;
46028;SDS011;31763;48.180;7.904;2022-07-18T14:32:12;12.18;;;6.32;;
46028;SDS011;31763;48.180;7.904;2022-07-18T14:34:50;11.88;;;5.88;;
46028;SDS011;31763;48.180;7.904;2022-07-18T14:37:20;13.20;;;6.50;;
46028;SDS011;31763;48.180;7.904;2022-07-18T14:39:55;11.20;;;5.88;;
46028;SDS011;31763;48.180;7.904;2022-07-18T14:42:25;7.32;;;5.18;;
46028;SDS011;31763;48.180;7.904;2022-07-18T14:45:16;7.05;;;5.35;;
46028;SDS011;31763;48.180;7.904;2022-07-18T14:48:02;10.65;;;5.40;;
46028;SDS011;31763;48.180;7.904;2022-07-18T14:51:03;13.23;;;4.90;;
46028;SDS011;31763;48.180;7.904;2022-07-18T14:53:58;10.75;;;4.35;;
46028;SDS011;31763;48.180;7.904;2022-07-18T14:56:25;9.98;;;4.50;;
46028;SDS011;31763;48.180;7.904;2022-07-18T14:58:55;9.77;;;4.40;;
46028;SDS011;31763;48.180;7.904;2022-07-18T15:01:22;7.88;;;4.55;;
46028;SDS011;31763;48.180;7.904;2022-07-18T15:03:50;7.13;;;4.43;;
46028;SDS011;31763;48.180;7.904;2022-07-18T15:06:23;7.88;;;4.32;;
46028;SDS011;31763;48.180;7.904;2022-07-18T15:08:50;8.90;;;4.25;;
46028;SDS011;31763;48.180;7.904;2022-07-18T15:11:17;7.40;;;3.90;;
46028;SDS011;31763;48.180;7.904;2022-07-18T15:13:47;10.10;;;3.78;;
46028;SDS011;31763;48.180;7.904;2022-07-18T15:16:14;10.48;;;4.15;;
46028;SDS011;31763;48.180;7.904;2022-07-18T15:18:42;5.28;;;3.40;;
46028;SDS011;31763;48.180;7.904;2022-07-18T15:21:09;10.32;;;3.70;;
46028;SDS011;31763;48.180;7.904;2022-07-18T15:23:36;9.38;;;3.83;;
46028;SDS011;31763;48.180;7.904;2022-07-18T15:26:04;5.30;;;3.35;;
46028;SDS011;31763;48.180;7.904;2022-07-18T15:28:31;6.32;;;3.47;;
46028;SDS011;31763;48.180;7.904;2022-07-18T15:30:58;6.72;;;3.13;;
46028;SDS011;31763;48.180;7.904;2022-07-18T15:33:25;6.53;;;3.35;;
46028;SDS011;31763;48.180;7.904;2022-07-18T15:35:53;8.20;;;3.20;;
46028;SDS011;31763;48.180;7.904;2022-07-18T15:38:20;6.57;;;3.33;;
46028;SDS011;31763;48.180;7.904;2022-07-18T15:40:48;7.15;;;2.42;;
46028;SDS011;31763;48.180;7.904;2022-07-18T15:43:15;5.40;;;2.25;;
46028;SDS011;31763;48.180;7.904;2022-07-18T15:45:43;8.43;;;2.70;;
46028;SDS011;31763;48.180;7.904;2022-07-18T15:48:10;4.53;;;2.45;;
46028;SDS011;31763;48.180;7.904;2022-07-18T15:50:37;5.97;;;2.70;;
46028;SDS011;31763;48.180;7.904;2022-07-18T15:53:05;4.75;;;2.40;;
46028;SDS011;31763;48.180;7.904;2022-07-18T15:55:32;5.55;;;2.70;;
46028;SDS011;31763;48.180;7.904;2022-07-18T15:57:59;6.90;;;2.30;;
46028;SDS011;31763;48.180;7.904;2022-07-18T16:00:27;7.28;;;2.10;;
46028;SDS011;31763;48.180;7.904;2022-07-18T16:02:58;4.35;;;2.30;;
46028;SDS011;31763;48.180;7.904;2022-07-18T16:05:48;5.07;;;2.67;;
46028;SDS011;31763;48.180;7.904;2022-07-18T16:09:16;5.43;;;2.13;;
46028;SDS011;31763;48.180;7.904;2022-07-18T16:12:34;8.75;;;2.42;;
46028;SDS011;31763;48.180;7.904;2022-07-18T16:15:25;3.63;;;2.38;;